createdAt,value
2023-04-29T00:00:15.020Z,11.95
2023-04-29T00:02:44.351Z,10.25
2023-04-29T00:05:14.500Z,11.82
2023-04-29T00:07:44.155Z,10.98
2023-04-29T00:10:15.584Z,10.32
2023-04-29T00:12:46.503Z,9.43
2023-04-29T00:15:15.776Z,9.27
2023-04-29T00:17:46.330Z,9.43
2023-04-29T00:20:15.923Z,9.35
2023-04-29T00:22:46.461Z,8.38
2023-04-29T00:25:16.077Z,8.25
2023-04-29T00:27:46.700Z,8.50
2023-04-29T00:30:15.844Z,9.15
2023-04-29T00:32:45.630Z,9.05
2023-04-29T00:35:14.692Z,8.63
2023-04-29T00:37:44.042Z,8.90
2023-04-29T00:40:15.982Z,8.93
2023-04-29T00:42:46.767Z,8.68
2023-04-29T00:45:15.767Z,8.10
2023-04-29T00:47:44.809Z,8.45
2023-04-29T00:50:14.333Z,8.98
2023-04-29T00:52:44.230Z,8.77
2023-04-29T00:55:14.618Z,8.63
2023-04-29T00:57:43.698Z,8.13
2023-04-29T01:00:17.051Z,8.60
2023-04-29T01:02:47.464Z,8.73
2023-04-29T01:05:16.653Z,8.18
2023-04-29T01:07:56.741Z,8.18
2023-04-29T01:10:30.281Z,7.22
2023-04-29T01:13:08.323Z,7.53
2023-04-29T01:15:46.065Z,7.28
2023-04-29T01:18:27.453Z,7.75
2023-04-29T01:20:58.429Z,7.72
2023-04-29T01:23:30.651Z,7.50
2023-04-29T01:26:00.275Z,6.72
2023-04-29T01:28:42.350Z,7.00
2023-04-29T01:31:19.481Z,7.10
2023-04-29T01:33:55.946Z,6.15
2023-04-29T01:36:33.903Z,6.55
2023-04-29T01:39:11.067Z,6.47
2023-04-29T01:41:44.899Z,6.40
2023-04-29T01:44:20.562Z,6.00
2023-04-29T01:46:53.238Z,6.40
2023-04-29T01:49:23.162Z,5.85
2023-04-29T01:51:52.171Z,6.03
2023-04-29T01:54:25.648Z,5.45
2023-04-29T01:56:54.894Z,5.97
2023-04-29T01:59:23.862Z,6.18
2023-04-29T02:01:53.218Z,5.38
2023-04-29T02:04:22.256Z,7.13
2023-04-29T02:06:51.382Z,6.53
2023-04-29T02:09:22.509Z,6.75
2023-04-29T02:11:51.605Z,6.63
2023-04-29T02:14:20.579Z,6.85
2023-04-29T02:16:49.829Z,7.72
2023-04-29T02:19:18.900Z,7.40
2023-04-29T02:21:47.967Z,8.00
2023-04-29T02:24:17.091Z,7.82
2023-04-29T02:26:47.667Z,7.75
2023-04-29T02:29:16.651Z,7.45
2023-04-29T02:31:45.731Z,7.95
2023-04-29T02:34:14.750Z,8.10
2023-04-29T02:36:43.973Z,8.13
2023-04-29T02:39:13.080Z,8.13
2023-04-29T02:41:43.002Z,7.88
2023-04-29T02:44:13.651Z,7.90
2023-04-29T02:46:46.261Z,8.02
2023-04-29T02:49:15.271Z,7.97
2023-04-29T02:51:44.317Z,7.85
2023-04-29T02:54:13.355Z,7.85
2023-04-29T02:56:42.340Z,7.78
2023-04-29T02:59:12.974Z,7.60
2023-04-29T03:01:42.220Z,7.13
2023-04-29T03:04:11.778Z,7.68
2023-04-29T03:06:40.880Z,7.70
2023-04-29T03:09:09.862Z,8.13
2023-04-29T03:11:38.998Z,8.07
2023-04-29T03:14:08.140Z,7.70
2023-04-29T03:16:39.265Z,7.28
2023-04-29T03:19:08.394Z,7.38
2023-04-29T03:21:37.797Z,7.05
2023-04-29T03:24:07.888Z,8.00
2023-04-29T03:26:36.940Z,7.55
2023-04-29T03:29:05.979Z,8.27
2023-04-29T03:31:35.218Z,8.50
2023-04-29T03:34:05.911Z,8.05
2023-04-29T03:36:35.133Z,8.20
2023-04-29T03:39:04.211Z,8.23
2023-04-29T03:41:33.365Z,8.45
2023-04-29T03:44:02.521Z,8.15
2023-04-29T03:46:31.704Z,7.93
2023-04-29T03:49:01.523Z,7.97
2023-04-29T03:51:32.586Z,8.82
2023-04-29T03:54:02.668Z,8.27
2023-04-29T03:56:31.708Z,8.15
2023-04-29T03:59:00.714Z,8.40
2023-04-29T04:01:29.971Z,9.10
2023-04-29T04:03:59.129Z,8.38
2023-04-29T04:06:28.306Z,8.93
2023-04-29T04:08:59.107Z,9.13
2023-04-29T04:11:28.087Z,8.82
2023-04-29T04:13:57.061Z,9.00
2023-04-29T04:16:26.186Z,9.63
2023-04-29T04:18:55.544Z,9.95
2023-04-29T04:21:24.632Z,10.57
2023-04-29T04:23:53.678Z,10.18
2023-04-29T04:26:24.607Z,9.95
2023-04-29T04:28:53.645Z,10.23
2023-04-29T04:31:22.717Z,10.25
2023-04-29T04:33:51.911Z,10.25
2023-04-29T04:36:20.994Z,11.02
2023-04-29T04:38:49.960Z,11.18
2023-04-29T04:41:19.059Z,11.02
2023-04-29T04:43:49.728Z,10.15
2023-04-29T04:46:18.964Z,10.80
2023-04-29T04:48:48.299Z,11.38
2023-04-29T04:51:17.330Z,11.60
2023-04-29T04:53:46.477Z,12.55
2023-04-29T04:56:15.445Z,11.73
2023-04-29T04:58:44.364Z,12.77
2023-04-29T05:01:15.037Z,12.23
2023-04-29T05:03:44.257Z,12.05
2023-04-29T05:06:13.464Z,11.98
2023-04-29T05:08:42.724Z,12.60
2023-04-29T05:11:18.747Z,13.30
2023-04-29T05:13:47.988Z,12.57
2023-04-29T05:16:19.400Z,12.25
2023-04-29T05:18:48.679Z,14.05
2023-04-29T05:21:17.951Z,13.70
2023-04-29T05:23:47.094Z,12.82
2023-04-29T05:26:16.315Z,13.13
2023-04-29T05:28:45.325Z,12.75
2023-04-29T05:31:14.425Z,14.15
2023-04-29T05:33:47.120Z,13.95
2023-04-29T05:36:16.092Z,14.20
2023-04-29T05:38:46.147Z,14.13
2023-04-29T05:41:15.218Z,15.55
2023-04-29T05:43:44.240Z,14.48
2023-04-29T05:46:13.239Z,15.05
2023-04-29T05:48:42.380Z,14.63
2023-04-29T05:51:16.448Z,15.50
2023-04-29T05:53:46.132Z,14.70
2023-04-29T05:56:15.065Z,15.68
2023-04-29T05:58:44.100Z,14.63
2023-04-29T06:01:13.595Z,15.90
2023-04-29T06:03:42.799Z,15.75
2023-04-29T06:06:14.010Z,16.83
2023-04-29T06:08:43.264Z,16.15
2023-04-29T06:11:12.273Z,17.92
2023-04-29T06:13:41.379Z,16.58
2023-04-29T06:16:11.490Z,17.00
2023-04-29T06:18:40.446Z,17.40
2023-04-29T06:21:09.864Z,17.85
2023-04-29T06:23:40.485Z,16.15
2023-04-29T06:26:09.415Z,16.40
2023-04-29T06:28:38.444Z,17.73
2023-04-29T06:31:08.308Z,17.83
2023-04-29T06:33:37.338Z,18.20
2023-04-29T06:36:07.209Z,17.35
2023-04-29T06:38:36.449Z,18.92
2023-04-29T06:41:07.214Z,18.73
2023-04-29T06:43:36.331Z,18.85
2023-04-29T06:46:05.532Z,18.13
2023-04-29T06:48:34.612Z,19.42
2023-04-29T06:51:03.833Z,18.83
2023-04-29T06:53:32.835Z,18.90
2023-04-29T06:56:01.813Z,19.50
2023-04-29T06:58:32.432Z,18.33
2023-04-29T07:01:01.527Z,18.67
2023-04-29T07:03:30.972Z,19.60
2023-04-29T07:06:00.083Z,20.23
2023-04-29T07:08:29.609Z,20.90
2023-04-29T07:10:59.456Z,20.70
2023-04-29T07:13:28.433Z,19.70
2023-04-29T07:15:59.087Z,21.02
2023-04-29T07:18:28.140Z,20.42
2023-04-29T07:21:01.595Z,21.30
2023-04-29T07:23:30.704Z,21.40
2023-04-29T07:25:59.661Z,19.83
2023-04-29T07:28:29.274Z,20.65
2023-04-29T07:30:59.915Z,20.52
2023-04-29T07:33:29.529Z,20.35
2023-04-29T07:35:58.597Z,21.80
2023-04-29T07:38:27.538Z,22.42
2023-04-29T07:40:57.250Z,22.48
2023-04-29T07:43:26.284Z,21.60
2023-04-29T07:45:55.261Z,22.58
2023-04-29T07:48:26.019Z,22.20
2023-04-29T07:50:55.504Z,22.50
2023-04-29T07:53:24.602Z,24.75
2023-04-29T07:55:53.730Z,25.00
2023-04-29T07:58:22.744Z,24.63
2023-04-29T08:00:51.804Z,25.85
2023-04-29T08:03:21.430Z,24.83
2023-04-29T08:05:54.482Z,25.20
2023-04-29T08:08:26.865Z,26.38
2023-04-29T08:10:55.923Z,26.33
2023-04-29T08:13:25.311Z,26.88
2023-04-29T08:15:54.557Z,27.00
2023-04-29T08:18:23.826Z,27.83
2023-04-29T08:20:54.464Z,27.25
2023-04-29T08:23:23.485Z,28.13
2023-04-29T08:25:53.304Z,28.85
2023-04-29T08:28:22.383Z,29.45
2023-04-29T08:30:51.560Z,27.30
2023-04-29T08:33:20.517Z,30.08
2023-04-29T08:35:49.499Z,28.88
2023-04-29T08:38:20.145Z,28.52
2023-04-29T08:40:49.143Z,29.23
2023-04-29T08:43:20.884Z,30.58
2023-04-29T08:45:50.923Z,29.48
2023-04-29T08:48:20.606Z,29.00
2023-04-29T08:50:49.663Z,29.55
2023-04-29T08:53:20.386Z,29.10
2023-04-29T08:55:49.856Z,29.83
2023-04-29T08:58:19.183Z,29.45
2023-04-29T09:00:48.663Z,29.30
2023-04-29T09:03:26.265Z,30.33
2023-04-29T09:05:57.182Z,29.02
2023-04-29T09:08:28.623Z,27.98
2023-04-29T09:10:59.136Z,28.95
2023-04-29T09:13:29.159Z,28.58
2023-04-29T09:15:58.596Z,28.83
2023-04-29T09:18:47.658Z,29.20
2023-04-29T09:21:21.120Z,30.98
2023-04-29T09:23:54.456Z,31.38
2023-04-29T09:26:25.005Z,30.63
2023-04-29T09:29:10.457Z,28.90
2023-04-29T09:31:40.461Z,31.45
2023-04-29T09:34:10.085Z,30.52
2023-04-29T09:36:41.761Z,30.95
2023-04-29T09:39:14.275Z,28.27
2023-04-29T09:41:58.688Z,30.55
2023-04-29T09:44:31.246Z,29.88
2023-04-29T09:47:03.937Z,30.00
2023-04-29T09:49:34.782Z,31.58
2023-04-29T09:52:05.423Z,29.90
2023-04-29T09:54:39.882Z,28.63
2023-04-29T09:57:10.003Z,31.65
2023-04-29T09:59:39.831Z,30.63
2023-04-29T10:02:19.141Z,30.05
2023-04-29T10:04:49.573Z,30.13
2023-04-29T10:07:19.465Z,29.85
2023-04-29T10:09:50.388Z,31.42
2023-04-29T10:12:21.138Z,31.25
2023-04-29T10:15:04.785Z,33.22
2023-04-29T10:17:42.393Z,30.40
2023-04-29T10:20:17.262Z,31.55
2023-04-29T10:22:48.679Z,31.77
2023-04-29T10:25:21.065Z,31.20
2023-04-29T10:27:52.777Z,33.05
2023-04-29T10:30:23.270Z,33.17
2023-04-29T10:32:53.144Z,33.03
2023-04-29T10:35:26.280Z,32.03
2023-04-29T10:37:57.138Z,33.33
2023-04-29T10:40:35.575Z,33.03
2023-04-29T10:43:05.519Z,33.08
2023-04-29T10:45:37.144Z,33.22
2023-04-29T10:48:16.528Z,33.50
2023-04-29T10:51:04.432Z,34.03
2023-04-29T10:53:33.505Z,32.88
2023-04-29T10:56:11.699Z,33.38
2023-04-29T10:58:44.632Z,33.50
2023-04-29T11:01:14.978Z,33.08
2023-04-29T11:03:56.390Z,34.40
2023-04-29T11:06:26.520Z,33.63
2023-04-29T11:09:10.367Z,33.42
2023-04-29T11:12:07.440Z,34.22
2023-04-29T11:14:42.951Z,32.33
2023-04-29T11:17:13.872Z,32.67
2023-04-29T11:19:46.095Z,32.60
2023-04-29T11:22:25.535Z,31.95
2023-04-29T11:24:57.150Z,34.13
2023-04-29T11:27:31.118Z,34.38
2023-04-29T11:30:00.681Z,34.72
2023-04-29T11:32:31.091Z,34.60
2023-04-29T11:35:10.379Z,34.58
2023-04-29T11:37:39.595Z,34.40
2023-04-29T11:40:09.748Z,34.42
2023-04-29T11:42:43.397Z,35.60
2023-04-29T11:45:13.317Z,35.15
2023-04-29T11:47:48.751Z,33.60
2023-04-29T11:50:20.986Z,34.10
2023-04-29T11:52:51.246Z,33.80
2023-04-29T11:55:20.951Z,34.10
2023-04-29T11:57:54.053Z,34.85
2023-04-29T12:00:23.077Z,34.72
2023-04-29T12:02:52.270Z,36.17
2023-04-29T12:05:21.669Z,35.22
2023-04-29T12:07:51.966Z,34.17
2023-04-29T12:10:22.205Z,35.40
2023-04-29T12:12:53.232Z,33.92
2023-04-29T12:15:22.586Z,36.50
2023-04-29T12:17:52.377Z,34.90
2023-04-29T12:20:22.965Z,34.55
2023-04-29T12:22:52.006Z,33.67
2023-04-29T12:25:23.128Z,33.92
2023-04-29T12:27:53.789Z,35.35
2023-04-29T12:30:22.941Z,33.38
2023-04-29T12:32:54.304Z,34.05
2023-04-29T12:35:23.553Z,36.05
2023-04-29T12:37:53.050Z,35.60
2023-04-29T12:40:22.369Z,36.78
2023-04-29T12:42:54.379Z,34.72
2023-04-29T12:45:31.637Z,34.78
2023-04-29T12:48:01.683Z,36.38
2023-04-29T12:50:35.139Z,33.70
2023-04-29T12:53:05.823Z,35.20
2023-04-29T12:55:35.811Z,33.35
2023-04-29T12:58:07.148Z,35.05
2023-04-29T13:00:38.269Z,35.78
2023-04-29T13:03:08.195Z,36.47
2023-04-29T13:05:37.491Z,34.20
2023-04-29T13:08:07.679Z,35.42
2023-04-29T13:10:37.069Z,34.95
2023-04-29T13:13:10.443Z,33.55
2023-04-29T13:15:43.324Z,33.22
2023-04-29T13:18:12.580Z,34.08
2023-04-29T13:20:42.690Z,32.45
2023-04-29T13:23:13.056Z,32.95
2023-04-29T13:25:42.015Z,32.10
2023-04-29T13:28:12.742Z,33.20
2023-04-29T13:30:41.765Z,34.28
2023-04-29T13:33:12.633Z,35.35
2023-04-29T13:35:42.836Z,35.78
2023-04-29T13:38:11.915Z,35.72
2023-04-29T13:40:45.971Z,34.95
2023-04-29T13:43:26.309Z,33.33
2023-04-29T13:46:01.883Z,35.63
2023-04-29T13:49:03.451Z,36.72
2023-04-29T14:04:01.330Z,35.15
2023-04-29T14:06:33.141Z,34.50
2023-04-29T14:09:03.881Z,33.63
2023-04-29T14:11:37.232Z,36.15
2023-04-29T14:14:08.213Z,36.92
2023-04-29T14:16:37.245Z,35.55
2023-04-29T14:19:06.298Z,35.45
2023-04-29T14:21:35.453Z,37.63
2023-04-29T14:24:05.426Z,36.25
2023-04-29T14:26:34.467Z,36.85
2023-04-29T14:29:03.573Z,36.90
2023-04-29T14:31:39.541Z,35.65
2023-04-29T14:34:08.568Z,35.08
2023-04-29T14:36:37.639Z,35.78
2023-04-29T14:39:06.644Z,35.17
2023-04-29T14:41:35.619Z,35.72
2023-04-29T14:44:04.734Z,34.40
2023-04-29T14:46:35.547Z,33.88
2023-04-29T14:49:05.084Z,33.60
2023-04-29T14:51:34.101Z,33.00
2023-04-29T14:54:03.152Z,35.30
2023-04-29T14:56:32.291Z,35.17
2023-04-29T14:59:01.248Z,36.30
2023-04-29T15:01:32.073Z,34.08
2023-04-29T15:04:03.324Z,35.45
2023-04-29T15:06:33.344Z,33.85
2023-04-29T15:09:02.658Z,34.85
2023-04-29T15:11:31.756Z,34.80
2023-04-29T15:14:01.060Z,33.05
2023-04-29T15:16:31.211Z,33.00
2023-04-29T15:19:01.909Z,35.63
2023-04-29T15:21:31.124Z,34.45
2023-04-29T15:24:00.121Z,33.85
2023-04-29T15:26:29.464Z,33.92
2023-04-29T15:28:58.490Z,33.42
2023-04-29T15:31:30.662Z,33.20
2023-04-29T15:34:01.700Z,33.25
2023-04-29T15:36:32.040Z,33.88
2023-04-29T15:39:01.203Z,33.83
2023-04-29T15:41:30.177Z,33.40
2023-04-29T15:43:59.355Z,34.17
2023-04-29T15:46:28.954Z,33.92
2023-04-29T15:48:58.209Z,33.13
2023-04-29T15:51:28.978Z,32.45
2023-04-29T15:53:57.936Z,32.33
2023-04-29T15:56:27.145Z,30.58
2023-04-29T15:58:56.203Z,31.33
2023-04-29T16:01:25.177Z,31.52
2023-04-29T16:03:54.246Z,31.13
2023-04-29T16:06:23.473Z,31.73
2023-04-29T16:08:54.440Z,32.35
2023-04-29T16:11:23.455Z,32.00
2023-04-29T16:13:52.595Z,30.45
2023-04-29T16:16:21.677Z,30.88
2023-04-29T16:18:50.705Z,28.63
2023-04-29T16:21:19.726Z,30.85
2023-04-29T16:23:48.688Z,27.88
2023-04-29T16:26:19.961Z,30.77
2023-04-29T16:28:48.931Z,31.58
2023-04-29T16:31:20.010Z,30.17
2023-04-29T16:33:49.453Z,28.17
2023-04-29T16:36:18.592Z,28.15
2023-04-29T16:38:47.631Z,29.25
2023-04-29T16:41:16.679Z,29.85
2023-04-29T16:43:47.291Z,32.13
2023-04-29T16:46:16.529Z,33.50
2023-04-29T16:48:45.636Z,31.75
2023-04-29T16:51:14.845Z,32.70
2023-04-29T16:53:44.027Z,31.10
2023-04-29T16:56:13.251Z,33.55
2023-04-29T16:58:42.206Z,29.75
2023-04-29T17:01:13.015Z,27.23
2023-04-29T17:03:42.197Z,30.33
2023-04-29T17:06:11.241Z,29.95
2023-04-29T17:08:40.264Z,29.67
2023-04-29T17:11:10.260Z,29.85
2023-04-29T17:13:39.256Z,31.02
2023-04-29T17:16:09.233Z,30.27
2023-04-29T17:18:39.933Z,30.00
2023-04-29T17:21:09.576Z,29.35
2023-04-29T17:23:38.530Z,26.20
2023-04-29T17:26:08.323Z,28.15
2023-04-29T17:28:37.584Z,29.10
2023-04-29T17:31:07.210Z,28.17
2023-04-29T17:33:36.503Z,26.10
2023-04-29T17:36:08.119Z,26.98
2023-04-29T17:38:37.582Z,25.98
2023-04-29T17:41:06.722Z,26.20
2023-04-29T17:43:36.293Z,22.98
2023-04-29T17:46:05.491Z,26.30
2023-04-29T17:48:34.536Z,26.92
2023-04-29T17:51:03.880Z,25.42
2023-04-29T17:53:34.642Z,25.80
2023-04-29T17:56:03.661Z,27.40
2023-04-29T17:58:32.710Z,26.42
2023-04-29T18:01:04.229Z,26.30
2023-04-29T18:03:33.324Z,24.63
2023-04-29T18:06:02.409Z,25.33
2023-04-29T18:08:31.947Z,25.83
2023-04-29T18:11:02.536Z,24.63
2023-04-29T18:13:31.607Z,25.50
2023-04-29T18:16:01.560Z,23.55
2023-04-29T18:18:30.973Z,22.42
2023-04-29T18:21:00.004Z,24.67
2023-04-29T18:23:29.022Z,24.23
2023-04-29T18:25:57.950Z,22.23
2023-04-29T18:28:30.180Z,22.02
2023-04-29T18:30:59.245Z,21.42
2023-04-29T18:33:29.998Z,21.85
2023-04-29T18:35:59.020Z,22.60
2023-04-29T18:38:28.048Z,21.75
2023-04-29T18:40:57.020Z,21.35
2023-04-29T18:43:30.925Z,19.88
2023-04-29T18:46:00.036Z,19.20
2023-04-29T18:48:28.973Z,21.90
2023-04-29T18:51:03.639Z,18.50
2023-04-29T18:53:32.750Z,24.90
2023-04-29T18:56:01.849Z,20.90
2023-04-29T18:58:32.593Z,21.13
2023-04-29T19:01:03.310Z,23.23
2023-04-29T19:03:32.426Z,21.17
2023-04-29T19:06:01.404Z,18.90
2023-04-29T19:08:30.422Z,20.50
2023-04-29T19:11:00.775Z,18.75
2023-04-29T19:13:31.811Z,22.35
2023-04-29T19:16:00.957Z,20.30
2023-04-29T19:18:30.276Z,20.05
2023-04-29T19:20:59.430Z,18.88
2023-04-29T19:23:28.655Z,21.92
2023-04-29T19:25:57.660Z,20.92
2023-04-29T19:28:26.648Z,22.38
2023-04-29T19:30:57.413Z,23.10
2023-04-29T19:33:26.440Z,23.60
2023-04-29T19:35:55.466Z,22.08
2023-04-29T19:38:25.209Z,18.80
2023-04-29T19:40:56.772Z,22.33
2023-04-29T19:43:25.898Z,20.63
2023-04-29T19:45:56.746Z,21.30
2023-04-29T19:48:25.740Z,21.70
2023-04-29T19:50:54.998Z,18.70
2023-04-29T19:53:23.957Z,20.50
2023-04-29T19:55:54.829Z,26.50
2023-04-29T19:58:23.896Z,25.85
2023-04-29T20:00:53.012Z,26.15
2023-04-29T20:03:23.804Z,22.65
2023-04-29T20:05:53.472Z,24.23
2023-04-29T20:08:22.684Z,24.65
2023-04-29T20:10:51.704Z,25.92
2023-04-29T20:13:20.769Z,24.85
2023-04-29T20:15:50.674Z,27.30
2023-04-29T20:18:19.723Z,25.67
2023-04-29T20:20:50.474Z,24.90
2023-04-29T20:23:19.492Z,26.50
2023-04-29T20:25:48.543Z,23.02
2023-04-29T20:28:17.772Z,23.10
2023-04-29T20:30:46.785Z,23.85
2023-04-29T20:33:15.818Z,26.42
2023-04-29T20:35:44.848Z,25.40
2023-04-29T20:38:15.748Z,25.40
2023-04-29T20:40:44.771Z,25.23
2023-04-29T20:43:13.710Z,24.58
2023-04-29T20:45:43.077Z,24.63
2023-04-29T20:48:12.239Z,26.05
2023-04-29T20:50:41.296Z,23.77
2023-04-29T20:53:11.108Z,27.25
2023-04-29T20:55:41.832Z,25.27
2023-04-29T20:58:10.793Z,26.05
2023-04-29T21:00:39.834Z,24.45
2023-04-29T21:03:08.870Z,26.08
2023-04-29T21:05:37.831Z,26.73
2023-04-29T21:08:07.577Z,24.77
2023-04-29T21:10:36.630Z,24.40
2023-04-29T21:13:07.557Z,27.65
2023-04-29T21:15:36.883Z,22.65
2023-04-29T21:18:06.808Z,22.40
2023-04-29T21:20:36.830Z,21.10
2023-04-29T21:23:05.936Z,22.70
2023-04-29T21:25:35.078Z,19.50
2023-04-29T21:28:04.750Z,17.55
2023-04-29T21:30:35.677Z,16.92
2023-04-29T21:33:04.953Z,17.40
2023-04-29T21:35:34.035Z,17.75
2023-04-29T21:38:03.037Z,16.88
2023-04-29T21:40:32.072Z,17.73
2023-04-29T21:43:01.118Z,15.52
2023-04-29T21:45:30.577Z,15.95
2023-04-29T21:48:09.926Z,17.38
2023-04-29T21:50:39.582Z,15.95
2023-04-29T21:53:08.656Z,15.40
2023-04-29T21:55:37.866Z,16.45
2023-04-29T21:58:07.427Z,14.77
2023-04-29T22:00:41.442Z,14.73
2023-04-29T22:03:12.317Z,15.57
2023-04-29T22:05:41.383Z,15.88
2023-04-29T22:08:10.362Z,14.98
2023-04-29T22:10:40.971Z,15.02
2023-04-29T22:13:09.930Z,13.05
2023-04-29T22:15:39.096Z,14.90
2023-04-29T22:18:08.202Z,14.48
2023-04-29T22:20:38.935Z,14.20
2023-04-29T22:23:08.015Z,13.43
2023-04-29T22:25:37.060Z,13.60
2023-04-29T22:28:06.274Z,13.98
2023-04-29T22:30:35.273Z,14.00
2023-04-29T22:33:04.573Z,13.75
2023-04-29T22:35:33.561Z,12.98
2023-04-29T22:38:04.283Z,13.68
2023-04-29T22:40:33.388Z,13.43
2023-04-29T22:43:02.462Z,12.98
2023-04-29T22:45:32.588Z,12.70
2023-04-29T22:48:01.614Z,12.70
2023-04-29T22:50:30.739Z,12.02
2023-04-29T22:52:59.725Z,12.80
2023-04-29T22:55:30.482Z,11.60
2023-04-29T22:57:59.434Z,11.43
2023-04-29T23:00:28.433Z,11.70
2023-04-29T23:02:57.387Z,11.57
2023-04-29T23:05:27.275Z,11.07
2023-04-29T23:07:56.418Z,12.20
2023-04-29T23:10:25.430Z,11.55
2023-04-29T23:12:56.179Z,12.73
2023-04-29T23:15:25.231Z,11.60
2023-04-29T23:17:54.319Z,11.30
2023-04-29T23:20:23.407Z,12.05
2023-04-29T23:22:52.470Z,10.55
2023-04-29T23:25:21.456Z,11.75
2023-04-29T23:27:50.439Z,10.52
2023-04-29T23:30:21.264Z,10.63
2023-04-29T23:32:50.306Z,10.23
2023-04-29T23:35:19.376Z,10.40
2023-04-29T23:37:48.584Z,10.18
2023-04-29T23:40:17.850Z,10.52
2023-04-29T23:42:46.790Z,10.60
2023-04-29T23:45:15.985Z,9.88
2023-04-29T23:47:46.694Z,10.02
2023-04-29T23:50:15.736Z,9.75
2023-04-29T23:52:44.746Z,9.50
2023-04-29T23:55:13.747Z,9.70
2023-04-29T23:57:42.694Z,11.07
